»·PEaware :: N4245G KGCN-KCRQ

N4245G :: KGCN-KCRQ

FLIGHT INFORMATION

Flight Status: Arrived
Operator: Privately registered:
United States
More flights under this callsign
Pilot: Bill H. (17578)
Aircraft: BEECH AIRCRAFT PREMIER
(PRM1)
More flights by this aircraft type
Origin: KGCN Grand Canyon Natl Park
United States
Destination: KCRQ McClellan-Palomar
United States
More flights between these airports :: More routes between these airports
Route: +PARKS4 PGS EED TRM JLI ESCON
File this flight plan on PilotEdge
Remarks:
Altitude:
(Current/Filed)
26,000ft
Speed:
(Current/Filed)
450kts
Departed: 02-Jun-19 01:52 PM
Arrived: 02-Jun-19 02:46 PM
Distance/Time
Traveled:
305nm/0:54
Distance/Time
To Go:
Arrived

Flight Plot

Page will automatically refresh every two minutes.

Flight plan parsing failed; only flown route is shown


Map Options




Map Legend


Flown Route
Filed Route
Departure Airport
Arrival Airport
Navaid (VOR, NDB)
Fix

Horizontal Profiles

Position Reports

Time Latitude Longitude Heading Altitude Ground
Speed
02-Jun-19 13:19 35.959518 -112.136942 221 6606ft 0kts
02-Jun-19 13:20 35.959518 -112.136942 221 6606ft 0kts
02-Jun-19 13:21 35.959518 -112.136942 221 6606ft 0kts
02-Jun-19 13:22 35.959518 -112.136942 221 6606ft 0kts
02-Jun-19 13:23 35.959518 -112.136942 221 6606ft 0kts
02-Jun-19 13:24 35.959518 -112.136942 221 6606ft 0kts
02-Jun-19 13:25 35.959518 -112.136942 221 6606ft 0kts
02-Jun-19 13:26 35.959518 -112.136942 221 6606ft 0kts
02-Jun-19 13:27 35.959518 -112.136942 221 6606ft 0kts
02-Jun-19 13:28 35.959518 -112.136942 221 6606ft 0kts
02-Jun-19 13:29 35.959518 -112.136942 221 6606ft 0kts
02-Jun-19 13:30 35.959518 -112.136942 221 6606ft 0kts
02-Jun-19 13:31 35.959518 -112.136942 221 6606ft 0kts
02-Jun-19 13:32 35.959518 -112.136942 221 6606ft 0kts
02-Jun-19 13:33 35.959518 -112.136942 221 6606ft 0kts
02-Jun-19 13:34 35.959518 -112.136942 221 6606ft 0kts
02-Jun-19 13:35 35.959518 -112.136942 221 6606ft 0kts
02-Jun-19 13:36 35.959518 -112.136942 221 6606ft 0kts
02-Jun-19 13:37 35.959518 -112.136942 221 6606ft 0kts
02-Jun-19 13:38 35.959518 -112.136942 221 6606ft 0kts
02-Jun-19 13:39 35.959518 -112.136942 221 6606ft 0kts
02-Jun-19 13:40 35.959518 -112.136942 221 6606ft 0kts
02-Jun-19 13:41 35.959518 -112.136942 221 6606ft 0kts
02-Jun-19 13:42 35.959518 -112.136942 221 6606ft 0kts
02-Jun-19 13:43 35.959518 -112.136942 221 6606ft 0kts
02-Jun-19 13:44 35.959518 -112.136942 221 6606ft 0kts
02-Jun-19 13:45 35.959518 -112.136942 221 6606ft 0kts
02-Jun-19 13:46 35.959620 -112.137322 329 6607ft 6kts
02-Jun-19 13:47 35.961030 -112.136350 330 6606ft 0kts
02-Jun-19 13:48 35.961095 -112.136395 330 6606ft 0kts
02-Jun-19 13:49 35.961126 -112.136421 324 6606ft 0kts
02-Jun-19 13:50 35.961303 -112.136686 306 6606ft 6kts
02-Jun-19 13:51 35.951090 -112.148277 217 6609ft 132kts
02-Jun-19 13:52 35.916048 -112.186764 220 7535ft 217kts
02-Jun-19 13:53 35.906074 -112.266169 283 8709ft 280kts
02-Jun-19 13:54 35.910715 -112.361111 251 9995ft 302kts
02-Jun-19 13:55 35.885788 -112.463873 251 9986ft 303kts
02-Jun-19 13:56 35.863010 -112.559916 251 10825ft 302kts
02-Jun-19 13:57 35.838992 -112.661022 251 12628ft 304kts
02-Jun-19 13:58 35.815335 -112.760329 250 14634ft 300kts
02-Jun-19 13:59 35.790556 -112.863378 250 15870ft 328kts
02-Jun-19 14:00 35.763720 -112.974755 251 17091ft 350kts
02-Jun-19 14:01 35.735294 -113.092456 251 18310ft 363kts
02-Jun-19 14:02 35.706995 -113.209048 251 20158ft 355kts
02-Jun-19 14:03 35.678381 -113.326229 250 21373ft 362kts
02-Jun-19 14:04 35.646761 -113.455105 250 22600ft 367kts
02-Jun-19 14:05 35.602959 -113.566334 223 23601ft 364kts
02-Jun-19 14:06 35.528030 -113.650525 219 24526ft 368kts
02-Jun-19 14:07 35.450935 -113.734835 219 25386ft 371kts
02-Jun-19 14:08 35.372911 -113.819925 220 25962ft 380kts
02-Jun-19 14:09 35.291921 -113.908015 220 25967ft 398kts
02-Jun-19 14:10 35.207586 -113.999482 220 25965ft 410kts
02-Jun-19 14:11 35.121360 -114.092728 220 25945ft 418kts
02-Jun-19 14:12 35.033505 -114.187454 220 25869ft 424kts
02-Jun-19 14:13 34.944940 -114.282738 219 25829ft 425kts
02-Jun-19 14:14 34.862726 -114.370860 218 25846ft 423kts
02-Jun-19 14:15 34.774542 -114.465488 222 25850ft 423kts
02-Jun-19 14:16 34.698828 -114.575943 228 25858ft 425kts
02-Jun-19 14:17 34.627433 -114.683775 227 25856ft 425kts
02-Jun-19 14:18 34.553347 -114.795372 227 25858ft 425kts
02-Jun-19 14:19 34.479182 -114.906724 227 25858ft 424kts
02-Jun-19 14:20 34.404938 -115.017859 227 25856ft 424kts
02-Jun-19 14:21 34.334259 -115.123309 227 25874ft 425kts
02-Jun-19 14:22 34.259734 -115.234171 227 25922ft 426kts
02-Jun-19 14:23 34.176900 -115.356949 227 25899ft 428kts
02-Jun-19 14:24 34.104446 -115.464066 227 25908ft 429kts
02-Jun-19 14:25 34.028877 -115.575411 227 25908ft 429kts
02-Jun-19 14:26 33.960972 -115.675163 227 25907ft 429kts
02-Jun-19 14:27 33.884711 -115.786896 227 25616ft 435kts
02-Jun-19 14:28 33.807110 -115.900190 227 24636ft 440kts
02-Jun-19 14:29 33.728996 -116.013893 227 23816ft 439kts
02-Jun-19 14:30 33.652466 -116.124962 227 23804ft 425kts
02-Jun-19 14:31 33.564770 -116.215825 213 23804ft 412kts
02-Jun-19 14:32 33.470440 -116.298519 213 22803ft 427kts
02-Jun-19 14:33 33.375157 -116.381837 213 21599ft 422kts
02-Jun-19 14:34 33.280911 -116.464224 213 20046ft 413kts
02-Jun-19 14:35 33.197436 -116.537704 214 17249ft 334kts
02-Jun-19 14:36 33.124591 -116.600183 214 14431ft 328kts
02-Jun-19 14:37 33.101657 -116.695727 280 12135ft 313kts
02-Jun-19 14:38 33.126382 -116.787754 298 10789ft 289kts
02-Jun-19 14:39 33.151683 -116.876231 273 8999ft 286kts
02-Jun-19 14:40 33.155081 -116.971603 274 7023ft 284kts
02-Jun-19 14:41 33.160745 -117.064145 271 5208ft 263kts
02-Jun-19 14:42 33.150854 -117.140126 258 3402ft 205kts
02-Jun-19 14:43 33.140640 -117.202364 259 1604ft 159kts
02-Jun-19 14:44 33.133480 -117.247223 258 791ft 120kts
02-Jun-19 14:45 33.127961 -117.281581 253 338ft 29kts
02-Jun-19 14:46 33.127027 -117.283233 198 338ft 0kts
02-Jun-19 14:47 33.127312 -117.280683 79 338ft 12kts
02-Jun-19 14:48 33.127031 -117.279577 182 338ft 0kts

Navigation Log

Ident Type
Flight plan parsing failed, navigation log unavailable